Anamosa, IA

10:20 AM CDT on August 22, 2014 (GMT -0500)
Monticello Regional | Change Station
CLOSE
Current Station
Airport
Location: Monticello,
Elevation: 850 ft
Nearby Weather Stations

Elev 850 ft 42.22 °N, 91.16 °W | Updated 25 minutes ago

Overcast
Overcast
75 °F
Feels Like 75 °F
N
4
Wind Variable Wind from SW

Today
High -- | Low -- °F
--% Chance of Precip.
Yesterday
High -- | Low -- °F
Precip. -- in
6:20 AM 7:55 PM
Waning Crescent, 8% visible
Pressure 29.94 in
Visibility 2.5 miles
Clouds Overcast 400 ft
Dew Point 75 °F
Humidity 100%
Rainfall 0.00 in
Snow Depth Not available.
UV 1 out of 12
Pollen 6.70 out of 12
Air Quality Not available.
Flu Activity Not available.
METAR KMXO 221455Z AUTO 22003KT 2 1/2SM BR OVC004 24/24 A2994 RMK AO2

More Conditions Fewer Conditions

Pressure 29.94 in
Visibility 2.5 miles
Clouds Overcast 400 ft
Dew Point 75 °F
Humidity 100%
Rainfall 0.00 in
Snow Depth Not available.
UV 1 out of 12
Pollen 6.70 out of 12
Air Quality Not available.
Flu Activity Not available.
METAR KMXO 221455Z AUTO 22003KT 2 1/2SM BR OVC004 24/24 A2994 RMK AO2

More Conditions Fewer Conditions

10-Day Weather Forecast

Almanac

Astronomy

Aug. 22, 2014 Rise Set
Actual Time 6:20 AM CDT 7:55 PM CDT
Civil Twilight 5:50 AM CDT 8:24 PM CDT
Nautical Twilight 5:14 AM CDT 9:00 PM CDT
Astronomical Twilight 4:36 AM CDT 9:37 PM CDT
Moon 3:41 AM CDT 6:04 PM CDT
Length of Visible Light 14h 33m
Length of Day
13h 34m
Tomorrow will be 2m 37s shorter.
Waning Crescent, 8% of the Moon is Illuminated
Today
Waning Crescent
Aug 25
New
Sep 2
First Quarter
Sep 8
Full
Sep 15
Last Quarter

Today's Extremes

State Highs State Lows

Community

WunderPhotos

Upload Photos

1,746,187 photos uploaded!

WunderBlogs® & News

Nearby

Snow Depth

Station Depth Elevation
No new snow has been reported.

Earthquake Activity

City Distance Mag. Time & Date
No recent earthquake activity has been reported nearby.
Minimum magnitude displayed is 2.5.

Coastal Water Temperatures

Place Temperature
No Stations Reporting

Nearby Weather Stations